createdAt,value
2022-08-22T00:02:02.322Z,24.18
2022-08-22T00:02:46.943Z,25.39
2022-08-22T00:02:49.792Z,25.15
2022-08-22T00:02:57.283Z,25.62
2022-08-22T00:04:45.287Z,24.14
2022-08-22T00:07:40.643Z,24.12
2022-08-22T00:10:55.393Z,24.13
2022-08-22T00:14:10.001Z,24.15
2022-08-22T00:16:40.859Z,24.14
2022-08-22T00:19:22.711Z,24.15
2022-08-22T00:22:00.268Z,24.17
2022-08-22T00:24:30.706Z,24.16
2022-08-22T00:27:04.377Z,24.15
2022-08-22T00:30:03.412Z,24.11
2022-08-22T00:32:38.680Z,24.12
2022-08-22T00:35:17.600Z,24.12
2022-08-22T00:37:52.667Z,24.10
2022-08-22T00:40:42.456Z,24.13
2022-08-22T00:43:39.658Z,24.20
2022-08-22T00:46:29.122Z,24.21
2022-08-22T00:49:16.756Z,24.22
2022-08-22T00:52:08.219Z,24.23
2022-08-22T00:54:34.678Z,24.23
2022-08-22T00:57:22.539Z,24.22
2022-08-22T01:00:09.932Z,24.20
2022-08-22T01:02:40.746Z,24.22
2022-08-22T01:05:25.784Z,24.19
2022-08-22T01:07:58.170Z,24.20
2022-08-22T01:11:00.667Z,24.20
2022-08-22T01:14:02.357Z,24.22
2022-08-22T01:16:59.130Z,24.23
2022-08-22T01:19:56.989Z,24.24
2022-08-22T01:22:54.196Z,24.24
2022-08-22T01:25:26.753Z,24.27
2022-08-22T01:28:23.278Z,24.25
2022-08-22T01:31:08.532Z,24.22
2022-08-22T01:36:52.729Z,24.18
2022-08-22T01:39:43.742Z,24.19
2022-08-22T01:42:16.191Z,24.19
2022-08-22T01:44:43.685Z,24.17
2022-08-22T01:47:39.997Z,24.15
2022-08-22T01:50:18.623Z,24.10
2022-08-22T01:52:48.889Z,24.11
2022-08-22T01:55:26.690Z,24.11
2022-08-22T01:58:00.884Z,24.07
2022-08-22T02:00:34.641Z,24.08
2022-08-22T02:03:02.178Z,24.11
2022-08-22T02:05:31.761Z,24.09
2022-08-22T02:08:14.189Z,24.10
2022-08-22T02:11:02.306Z,24.09
2022-08-22T02:13:49.926Z,24.05
2022-08-22T02:16:21.549Z,24.04
2022-08-22T02:19:03.704Z,24.02
2022-08-22T02:21:57.612Z,24.02
2022-08-22T02:24:33.242Z,24.02
2022-08-22T02:27:08.347Z,23.99
2022-08-22T02:29:44.032Z,23.98
2022-08-22T02:32:16.638Z,23.99
2022-08-22T02:35:01.239Z,24.01
2022-08-22T02:37:57.514Z,24.00
2022-08-22T02:40:34.634Z,24.01
2022-08-22T02:43:07.643Z,24.00
2022-08-22T02:46:03.925Z,24.01
2022-08-22T02:48:50.489Z,24.00
2022-08-22T02:51:39.898Z,23.99
2022-08-22T02:54:09.614Z,23.99
2022-08-22T02:56:45.784Z,23.97
2022-08-22T02:59:15.330Z,23.96
2022-08-22T03:01:45.435Z,23.94
2022-08-22T03:04:25.260Z,23.94
2022-08-22T03:07:15.914Z,23.92
2022-08-22T03:10:13.228Z,23.87
2022-08-22T03:13:00.031Z,23.91
2022-08-22T03:15:36.465Z,23.89
2022-08-22T03:18:16.634Z,23.91
2022-08-22T03:20:59.121Z,23.93
2022-08-22T03:23:39.012Z,23.88
2022-08-22T03:26:15.490Z,23.92
2022-08-22T03:29:11.984Z,23.90
2022-08-22T03:31:58.468Z,23.87
2022-08-22T03:34:27.129Z,23.87
2022-08-22T03:37:06.038Z,23.85
2022-08-22T03:40:14.843Z,23.85
2022-08-22T03:43:14.906Z,23.83
2022-08-22T03:46:10.125Z,23.80
2022-08-22T03:48:57.536Z,23.83
2022-08-22T03:51:42.622Z,23.82
2022-08-22T03:54:55.278Z,23.82
2022-08-22T03:57:24.799Z,23.82
2022-08-22T04:00:29.688Z,23.82
2022-08-22T04:03:14.125Z,23.83
2022-08-22T04:05:43.732Z,23.82
2022-08-22T04:08:31.879Z,23.79
2022-08-22T04:11:32.334Z,23.80
2022-08-22T04:14:13.957Z,23.79
2022-08-22T04:16:52.822Z,23.79
2022-08-22T04:19:52.573Z,23.77
2022-08-22T04:22:37.475Z,23.79
2022-08-22T04:25:14.522Z,23.77
2022-08-22T04:27:55.800Z,23.75
2022-08-22T04:30:32.999Z,23.72
2022-08-22T04:33:08.780Z,23.66
2022-08-22T04:35:35.324Z,23.67
2022-08-22T04:38:09.993Z,23.66
2022-08-22T04:40:46.788Z,23.63
2022-08-22T04:43:23.706Z,23.64
2022-08-22T04:46:01.055Z,23.63
2022-08-22T04:48:31.821Z,23.61
2022-08-22T04:51:03.439Z,23.57
2022-08-22T04:53:55.778Z,23.55
2022-08-22T04:56:59.705Z,23.52
2022-08-22T04:59:28.600Z,23.51
2022-08-22T05:02:06.376Z,23.50
2022-08-22T05:04:37.966Z,23.46
2022-08-22T05:07:13.689Z,23.49
2022-08-22T05:09:44.711Z,23.45
2022-08-22T05:12:16.502Z,23.45
2022-08-22T05:14:48.659Z,23.46
2022-08-22T05:17:19.387Z,23.41
2022-08-22T05:22:24.476Z,23.41
2022-08-22T05:27:28.681Z,23.40
2022-08-22T05:30:02.351Z,23.35
2022-08-22T05:32:38.755Z,23.33
2022-08-22T05:35:08.671Z,23.31
2022-08-22T05:37:43.971Z,23.27
2022-08-22T05:40:24.690Z,23.26
2022-08-22T05:42:53.131Z,23.21
2022-08-22T05:45:21.726Z,23.19
2022-08-22T05:47:53.263Z,23.18
2022-08-22T05:50:36.522Z,23.13
2022-08-22T05:53:10.112Z,23.14
2022-08-22T05:55:40.087Z,23.16
2022-08-22T05:58:16.358Z,23.14
2022-08-22T06:00:47.297Z,23.11
2022-08-22T06:03:18.023Z,23.14
2022-08-22T06:05:49.986Z,23.15
2022-08-22T06:08:26.984Z,23.12
2022-08-22T06:11:05.639Z,23.14
2022-08-22T06:13:41.424Z,23.15
2022-08-22T06:16:40.813Z,23.21
2022-08-22T06:19:19.971Z,23.18
2022-08-22T06:21:50.569Z,23.20
2022-08-22T06:24:23.891Z,23.20
2022-08-22T06:26:54.085Z,23.19
2022-08-22T06:29:32.663Z,23.18
2022-08-22T06:32:02.395Z,23.17
2022-08-22T06:34:35.775Z,23.15
2022-08-22T06:37:05.655Z,23.13
2022-08-22T06:39:39.470Z,23.15
2022-08-22T06:42:17.068Z,23.14
2022-08-22T06:45:07.157Z,23.11
2022-08-22T06:47:39.512Z,23.06
2022-08-22T06:50:15.361Z,23.07
2022-08-22T06:52:56.905Z,23.02
2022-08-22T06:55:26.535Z,23.03
2022-08-22T06:58:00.518Z,23.01
2022-08-22T07:00:27.941Z,23.02
2022-08-22T07:03:07.565Z,23.12
2022-08-22T07:05:40.396Z,23.20
2022-08-22T07:08:16.227Z,23.23
2022-08-22T07:11:01.144Z,23.31
2022-08-22T07:13:28.389Z,23.34
2022-08-22T07:15:59.836Z,23.38
2022-08-22T07:18:29.718Z,23.40
2022-08-22T07:20:59.368Z,23.45
2022-08-22T07:23:37.954Z,23.50
2022-08-22T07:26:07.714Z,23.55
2022-08-22T07:28:51.326Z,23.60
2022-08-22T07:31:41.265Z,23.64
2022-08-22T07:34:18.025Z,23.67
2022-08-22T07:37:05.695Z,23.70
2022-08-22T07:40:00.541Z,23.70
2022-08-22T07:42:51.909Z,23.77
2022-08-22T07:45:33.329Z,23.79
2022-08-22T07:48:26.017Z,23.86
2022-08-22T07:51:05.759Z,23.92
2022-08-22T07:53:43.699Z,23.93
2022-08-22T07:56:32.472Z,23.97
2022-08-22T07:59:09.908Z,24.02
2022-08-22T08:01:45.766Z,24.04
2022-08-22T08:04:17.189Z,24.10
2022-08-22T08:06:52.848Z,24.13
2022-08-22T08:09:20.143Z,24.14
2022-08-22T08:11:49.244Z,24.19
2022-08-22T08:14:16.751Z,24.23
2022-08-22T08:17:04.013Z,24.28
2022-08-22T08:19:33.401Z,24.27
2022-08-22T08:22:00.477Z,24.31
2022-08-22T08:24:36.397Z,24.33
2022-08-22T08:27:31.128Z,24.36
2022-08-22T08:30:02.511Z,24.38
2022-08-22T08:32:35.087Z,24.43
2022-08-22T08:35:13.999Z,24.42
2022-08-22T08:37:50.408Z,24.45
2022-08-22T08:40:28.114Z,24.48
2022-08-22T08:43:29.552Z,24.51
2022-08-22T08:46:07.957Z,24.56
2022-08-22T08:48:52.816Z,24.60
2022-08-22T08:51:38.353Z,24.67
2022-08-22T08:54:24.993Z,24.70
2022-08-22T08:57:08.050Z,24.69
2022-08-22T09:02:45.603Z,24.76
2022-08-22T09:05:40.148Z,24.79
2022-08-22T09:08:24.739Z,24.83
2022-08-22T09:14:38.431Z,24.84
2022-08-22T09:17:29.873Z,24.86
2022-08-22T09:20:27.528Z,24.87
2022-08-22T09:23:15.063Z,24.89
2022-08-22T09:26:11.139Z,24.92
2022-08-22T09:29:34.632Z,24.95
2022-08-22T09:32:21.455Z,24.99
2022-08-22T09:35:12.912Z,24.97
2022-08-22T09:38:09.241Z,25.01
2022-08-22T09:40:16.606Z,24.87
2022-08-22T09:40:57.411Z,25.03
2022-08-22T09:44:24.492Z,25.04
2022-08-22T09:47:09.801Z,25.08
2022-08-22T09:50:20.786Z,25.11
2022-08-22T09:53:05.159Z,25.15
2022-08-22T09:55:50.216Z,25.16
2022-08-22T09:58:32.776Z,25.15
2022-08-22T10:01:19.684Z,25.16
2022-08-22T10:04:04.998Z,25.18
2022-08-22T10:06:52.974Z,25.21
2022-08-22T10:09:31.356Z,25.24
2022-08-22T10:12:12.480Z,25.27
2022-08-22T10:15:16.003Z,25.30
2022-08-22T10:18:02.922Z,25.32
2022-08-22T10:20:40.626Z,25.33
2022-08-22T10:23:14.005Z,25.39
2022-08-22T10:25:48.190Z,25.40
2022-08-22T10:28:17.765Z,25.41
2022-08-22T10:30:54.889Z,25.44
2022-08-22T10:33:29.088Z,25.44
2022-08-22T10:36:18.823Z,25.45
2022-08-22T10:38:47.631Z,25.43
2022-08-22T10:41:53.083Z,25.43
2022-08-22T10:44:30.253Z,25.42
2022-08-22T10:47:15.189Z,25.45
2022-08-22T10:50:08.794Z,25.43
2022-08-22T10:52:46.900Z,25.46
2022-08-22T10:55:27.151Z,25.49
2022-08-22T10:57:56.797Z,25.49
2022-08-22T11:00:58.357Z,25.49
2022-08-22T11:03:39.966Z,25.46
2022-08-22T11:06:14.619Z,25.49
2022-08-22T11:08:50.112Z,25.51
2022-08-22T11:11:35.966Z,25.51
2022-08-22T11:14:41.931Z,25.55
2022-08-22T11:17:54.218Z,25.58
2022-08-22T11:20:37.993Z,25.59
2022-08-22T11:23:42.022Z,25.56
2022-08-22T11:26:14.467Z,25.56
2022-08-22T11:29:34.334Z,25.55
2022-08-22T11:32:25.586Z,25.55
2022-08-22T11:35:03.580Z,25.54
2022-08-22T11:37:44.970Z,25.58
2022-08-22T11:40:17.247Z,25.56
2022-08-22T11:42:49.289Z,25.58
2022-08-22T11:45:23.527Z,25.60
2022-08-22T11:48:09.050Z,25.61
2022-08-22T11:50:38.650Z,25.58
2022-08-22T11:53:36.672Z,25.61
2022-08-22T11:56:10.376Z,25.63
2022-08-22T11:58:49.047Z,25.65
2022-08-22T12:01:17.321Z,25.66
2022-08-22T12:03:55.905Z,25.69
2022-08-22T12:06:58.774Z,25.69
2022-08-22T12:09:50.579Z,25.65
2022-08-22T12:12:38.791Z,25.69
2022-08-22T12:15:21.280Z,25.70
2022-08-22T12:18:09.685Z,25.71
2022-08-22T12:21:11.600Z,25.72
2022-08-22T12:23:56.981Z,25.74
2022-08-22T12:26:33.335Z,25.77
2022-08-22T12:29:15.280Z,25.80
2022-08-22T12:31:58.402Z,25.83
2022-08-22T12:34:43.682Z,25.85
2022-08-22T12:37:52.217Z,25.83
2022-08-22T12:40:20.084Z,25.89
2022-08-22T12:43:06.491Z,25.89
2022-08-22T12:45:55.415Z,25.93
2022-08-22T12:48:34.104Z,25.94
2022-08-22T12:51:43.416Z,25.96
2022-08-22T12:54:51.131Z,25.99
2022-08-22T12:57:25.099Z,26.02
2022-08-22T13:00:05.557Z,26.05
2022-08-22T13:02:36.071Z,26.08
2022-08-22T13:05:19.598Z,26.11
2022-08-22T13:07:54.533Z,26.12
2022-08-22T13:10:32.119Z,26.13
2022-08-22T13:13:00.536Z,26.15
2022-08-22T13:15:42.471Z,26.17
2022-08-22T13:18:30.753Z,26.19
2022-08-22T13:21:02.278Z,26.23
2022-08-22T13:23:34.385Z,26.25
2022-08-22T13:26:31.628Z,26.28
2022-08-22T13:29:25.581Z,26.29
2022-08-22T13:32:00.452Z,26.30
2022-08-22T13:34:36.863Z,26.31
2022-08-22T13:37:11.919Z,26.30
2022-08-22T13:39:42.508Z,26.31
2022-08-22T13:42:30.308Z,26.29
2022-08-22T13:45:02.479Z,26.30
2022-08-22T13:47:32.413Z,26.28
2022-08-22T13:50:14.603Z,26.25
2022-08-22T13:53:05.748Z,26.27
2022-08-22T13:55:55.241Z,26.25
2022-08-22T13:58:33.490Z,26.26
2022-08-22T14:01:06.887Z,26.27
2022-08-22T14:03:54.317Z,26.29
2022-08-22T14:06:46.903Z,26.31
2022-08-22T14:09:54.240Z,26.34
2022-08-22T14:12:50.549Z,26.37
2022-08-22T14:15:45.358Z,26.37
2022-08-22T14:18:30.313Z,26.32
2022-08-22T14:21:20.252Z,26.41
2022-08-22T14:23:51.964Z,26.44
2022-08-22T14:26:32.787Z,26.46
2022-08-22T14:29:12.028Z,26.50
2022-08-22T14:31:38.550Z,26.48
2022-08-22T14:34:10.540Z,26.52
2022-08-22T14:36:47.920Z,26.51
2022-08-22T14:39:23.559Z,26.54
2022-08-22T14:41:59.445Z,26.53
2022-08-22T14:45:00.487Z,26.57
2022-08-22T14:48:13.950Z,26.59
2022-08-22T14:51:08.486Z,26.56
2022-08-22T14:53:37.593Z,26.64
2022-08-22T14:56:25.001Z,26.67
2022-08-22T14:59:07.079Z,26.69
2022-08-22T15:01:53.194Z,26.74
2022-08-22T15:04:29.645Z,26.74
2022-08-22T15:06:59.784Z,26.75
2022-08-22T15:09:36.602Z,26.77
2022-08-22T15:12:22.020Z,26.78
2022-08-22T15:14:52.642Z,26.78
2022-08-22T15:17:37.223Z,26.80
2022-08-22T15:20:28.568Z,26.80
2022-08-22T15:23:00.717Z,26.83
2022-08-22T15:25:35.188Z,26.82
2022-08-22T15:28:14.250Z,26.86
2022-08-22T15:31:06.751Z,26.85
2022-08-22T15:33:40.166Z,26.89
2022-08-22T15:36:17.509Z,26.90
2022-08-22T15:38:48.282Z,26.92
2022-08-22T15:41:36.174Z,26.94
2022-08-22T15:44:18.295Z,26.94
2022-08-22T15:47:24.336Z,26.94
2022-08-22T15:50:05.458Z,26.96
2022-08-22T15:52:35.815Z,26.96
2022-08-22T15:55:17.996Z,26.96
2022-08-22T15:57:51.886Z,26.97
2022-08-22T16:00:32.745Z,26.99
2022-08-22T16:03:28.169Z,27.01
2022-08-22T16:05:55.795Z,26.99
2022-08-22T16:08:32.821Z,27.02
2022-08-22T16:11:02.567Z,27.02
2022-08-22T16:13:32.226Z,27.01
2022-08-22T16:16:03.931Z,27.02
2022-08-22T16:18:45.307Z,27.05
2022-08-22T16:21:23.788Z,27.05
2022-08-22T16:23:50.777Z,27.06
2022-08-22T16:26:20.237Z,27.07
2022-08-22T16:28:58.664Z,27.10
2022-08-22T16:31:31.876Z,27.09
2022-08-22T16:34:18.441Z,27.09
2022-08-22T16:37:08.576Z,27.10
2022-08-22T16:39:46.154Z,27.10
2022-08-22T16:42:12.644Z,27.12
2022-08-22T16:44:56.459Z,27.14
2022-08-22T16:47:40.723Z,27.15
2022-08-22T16:50:16.679Z,27.15
2022-08-22T16:52:54.468Z,27.17
2022-08-22T16:55:30.086Z,27.18
2022-08-22T16:58:11.896Z,27.18
2022-08-22T17:00:44.574Z,27.20
2022-08-22T17:03:27.147Z,27.21
2022-08-22T17:06:04.525Z,27.19
2022-08-22T17:09:01.870Z,27.21
2022-08-22T17:12:05.556Z,27.19
2022-08-22T17:14:45.900Z,27.21
2022-08-22T17:17:18.291Z,27.22
2022-08-22T17:19:47.659Z,27.20
2022-08-22T17:22:41.286Z,27.22
2022-08-22T17:25:16.817Z,27.21
2022-08-22T17:27:44.897Z,27.19
2022-08-22T17:30:34.590Z,27.19
2022-08-22T17:33:27.838Z,27.22
2022-08-22T17:36:31.898Z,27.21
2022-08-22T17:39:10.868Z,27.21
2022-08-22T17:41:58.683Z,27.20
2022-08-22T17:44:49.410Z,27.22
2022-08-22T17:47:21.711Z,27.23
2022-08-22T17:50:05.912Z,27.16
2022-08-22T17:52:48.413Z,27.24
2022-08-22T17:55:19.667Z,27.24
2022-08-22T17:58:10.824Z,27.25
2022-08-22T18:01:04.771Z,27.22
2022-08-22T18:03:34.165Z,27.24
2022-08-22T18:06:09.242Z,27.24
2022-08-22T18:11:56.071Z,27.17
2022-08-22T18:14:55.767Z,27.14
2022-08-22T18:18:04.602Z,27.10
2022-08-22T18:20:56.067Z,27.09
2022-08-22T18:23:40.088Z,27.02
2022-08-22T18:26:20.464Z,27.02
2022-08-22T18:29:07.377Z,26.98
2022-08-22T18:31:54.713Z,26.93
2022-08-22T18:34:42.455Z,26.92
2022-08-22T18:37:30.660Z,26.90
2022-08-22T18:40:04.058Z,26.89
2022-08-22T18:42:39.560Z,26.86
2022-08-22T18:45:06.162Z,26.83
2022-08-22T18:47:34.541Z,26.84
2022-08-22T18:50:23.784Z,26.84
2022-08-22T18:52:55.805Z,26.85
2022-08-22T18:55:44.928Z,26.86
2022-08-22T18:58:37.537Z,26.86
2022-08-22T19:01:50.892Z,26.85
2022-08-22T19:04:29.795Z,26.85
2022-08-22T19:07:29.902Z,26.85
2022-08-22T19:10:36.179Z,26.83
2022-08-22T19:13:38.113Z,26.82
2022-08-22T19:16:13.806Z,26.81
2022-08-22T19:18:51.356Z,26.78
2022-08-22T19:21:41.632Z,26.81
2022-08-22T19:24:12.714Z,26.81
2022-08-22T19:26:42.966Z,26.76
2022-08-22T19:29:16.029Z,26.84
2022-08-22T19:31:57.554Z,26.85
2022-08-22T19:34:29.602Z,26.84
2022-08-22T19:37:31.021Z,26.85
2022-08-22T19:40:08.627Z,26.84
2022-08-22T19:42:38.045Z,26.84
2022-08-22T19:45:19.521Z,26.82
2022-08-22T19:47:58.867Z,26.83
2022-08-22T19:50:31.893Z,26.80
2022-08-22T19:53:14.238Z,26.77
2022-08-22T19:55:56.283Z,26.71
2022-08-22T19:59:00.435Z,26.66
2022-08-22T20:01:50.924Z,26.59
2022-08-22T20:04:37.259Z,26.53
2022-08-22T20:07:24.750Z,26.46
2022-08-22T20:09:51.209Z,26.43
2022-08-22T20:12:54.442Z,26.38
2022-08-22T20:15:27.122Z,26.34
2022-08-22T20:20:57.205Z,26.25
2022-08-22T20:23:29.563Z,26.26
2022-08-22T20:25:57.146Z,26.21
2022-08-22T20:28:50.746Z,26.18
2022-08-22T20:31:24.513Z,26.13
2022-08-22T20:34:03.235Z,26.08
2022-08-22T20:36:30.574Z,26.09
2022-08-22T20:39:05.730Z,26.06
2022-08-22T20:41:40.400Z,26.02
2022-08-22T20:44:15.966Z,25.99
2022-08-22T20:46:43.577Z,25.95
2022-08-22T20:49:20.039Z,25.93
2022-08-22T20:52:02.956Z,25.93
2022-08-22T20:54:33.197Z,25.88
2022-08-22T20:57:03.145Z,25.85
2022-08-22T20:59:36.056Z,25.83
2022-08-22T21:02:02.637Z,25.82
2022-08-22T21:04:54.086Z,25.80
2022-08-22T21:07:42.631Z,25.77
2022-08-22T21:10:38.334Z,25.76
2022-08-22T21:13:11.459Z,25.73
2022-08-22T21:15:45.760Z,25.71
2022-08-22T21:18:24.840Z,25.66
2022-08-22T21:20:51.384Z,25.67
2022-08-22T21:23:19.499Z,25.67
2022-08-22T21:25:56.641Z,25.66
2022-08-22T21:28:31.781Z,25.70
2022-08-22T21:31:01.557Z,25.73
2022-08-22T21:33:28.207Z,25.74
2022-08-22T21:35:57.878Z,25.75
2022-08-22T21:38:25.381Z,25.74
2022-08-22T21:40:52.392Z,25.72
2022-08-22T21:43:34.050Z,25.71
2022-08-22T21:46:00.989Z,25.68
2022-08-22T21:48:36.058Z,25.69
2022-08-22T21:51:38.836Z,25.67
2022-08-22T21:54:24.147Z,25.65
2022-08-22T21:56:53.256Z,25.61
2022-08-22T21:59:50.826Z,25.56
2022-08-22T22:02:37.557Z,25.56
2022-08-22T22:05:08.140Z,25.57
2022-08-22T22:07:40.153Z,25.56
2022-08-22T22:10:11.585Z,25.54
2022-08-22T22:12:40.864Z,25.56
2022-08-22T22:15:08.299Z,25.57
2022-08-22T22:17:34.798Z,25.57
2022-08-22T22:20:01.370Z,25.56
2022-08-22T22:22:27.949Z,25.55
2022-08-22T22:24:54.486Z,25.54
2022-08-22T22:27:21.115Z,25.47
2022-08-22T22:29:47.610Z,25.49
2022-08-22T22:32:15.082Z,25.43
2022-08-22T22:34:41.598Z,25.45
2022-08-22T22:37:10.112Z,25.42
2022-08-22T22:39:37.092Z,25.42
2022-08-22T22:42:04.234Z,25.40
2022-08-22T22:44:31.155Z,25.44
2022-08-22T22:46:59.725Z,25.48
2022-08-22T22:49:26.222Z,25.49
2022-08-22T22:51:52.866Z,25.50
2022-08-22T22:54:20.405Z,25.49
2022-08-22T22:56:54.434Z,25.48
2022-08-22T22:59:24.783Z,25.44
2022-08-22T23:02:06.929Z,25.42
2022-08-22T23:04:36.168Z,25.38
2022-08-22T23:07:03.109Z,25.34
2022-08-22T23:09:38.730Z,25.32
2022-08-22T23:12:13.388Z,25.31
2022-08-22T23:14:39.937Z,25.31
2022-08-22T23:17:07.181Z,25.31
2022-08-22T23:19:33.865Z,25.32
2022-08-22T23:22:01.934Z,25.30
2022-08-22T23:24:31.157Z,25.32
2022-08-22T23:26:58.921Z,25.31
2022-08-22T23:29:25.973Z,25.31
2022-08-22T23:32:01.521Z,25.30
2022-08-22T23:34:32.750Z,25.26
2022-08-22T23:37:01.915Z,25.27
2022-08-22T23:39:34.474Z,25.25
2022-08-22T23:42:02.470Z,25.25
2022-08-22T23:44:32.391Z,25.23
2022-08-22T23:46:59.865Z,25.18
2022-08-22T23:49:27.321Z,25.18
2022-08-22T23:51:54.320Z,25.17
2022-08-22T23:54:22.595Z,25.14
2022-08-22T23:56:54.848Z,25.12
2022-08-22T23:59:30.521Z,25.11
